Terminal Aerodrome Forecast
Issued by NWS

Home | Current Version | Previous Version | Text Only | Print | Product List | Glossary On
Versions: 1 2 3 4 5 6 7 8 9 10 11 12 13 14
500
FTUS41 KCLE 291134
TAFFDY
TAF
KFDY 291134Z 2912/3012 07007KT 5SM -SHRA VCTS OVC011CB
      TEMPO 2912/2914 1 1/2SM -TSRA BR OVC007CB
     FM291400 06013KT 5SM -SHRA VCTS OVC007CB
     FM292000 06015G25KT P6SM OVC015
     FM300400 06009KT P6SM OVC010=

USA.gov is the U.S. government's official web portal to all federal, state and local government web resources and services.